Time;durP1;ratioP1;P1;durP2;ratioP2;P2;SDS_P1;SDS_P2;PMS_P1;PMS_P2;Temp;Humidity;BMP_temperature;BMP_pressure;BME280_temperature;BME280_humidity;BME280_pressure;Samples;Min_cycle;Max_cycle;Signal;HPM_P1;HPM_P2
2022/09/29 00:01:51;;;;;;;4.87;2.90;;;8.20;98.00;;;;;;5038184;28;20036;-83
2022/09/29 00:04:17;;;;;;;5.50;3.33;;;8.40;98.10;;;;;;5038233;28;20083;-83
2022/09/29 00:06:42;;;;;;;4.80;3.00;;;8.30;98.10;;;;;;5038243;28;20028;-83
2022/09/29 00:09:08;;;;;;;5.23;3.00;;;8.20;98.10;;;;;;5036177;28;20029;-83
2022/09/29 00:11:33;;;;;;;4.70;2.87;;;8.30;98.20;;;;;;5034835;28;20043;-83
2022/09/29 00:13:59;;;;;;;5.50;3.20;;;8.20;98.30;;;;;;5038047;28;20033;-83
2022/09/29 00:16:25;;;;;;;4.97;3.40;;;8.20;98.30;;;;;;5037640;28;20033;-83
2022/09/29 00:18:53;;;;;;;5.53;3.47;;;8.20;98.40;;;;;;5021341;28;20500;-84
2022/09/29 00:21:19;;;;;;;6.17;3.77;;;8.10;98.40;;;;;;5037834;28;20389;-83
2022/09/29 00:23:46;;;;;;;5.30;3.40;;;8.10;98.50;;;;;;5021453;28;20029;-83
2022/09/29 00:26:18;;;;;;;6.00;3.90;;;8.10;98.50;;;;;;5037863;28;20075;-83
2022/09/29 00:29:10;;;;;;;6.20;3.70;;;8.10;98.60;;;;;;5054373;28;20029;-83
2022/09/29 00:31:35;;;;;;;7.07;3.77;;;8.10;98.70;;;;;;5034632;28;20090;-83
2022/09/29 00:34:01;;;;;;;7.33;4.07;;;8.10;98.70;;;;;;5037880;28;20116;-77
2022/09/29 00:36:29;;;;;;;7.40;3.63;;;8.00;98.70;;;;;;5054023;28;20040;-77
2022/09/29 00:38:56;;;;;;;5.80;3.93;;;8.00;98.80;;;;;;5037946;28;20036;-77
2022/09/29 00:41:26;;;;;;;9.53;4.87;;;8.00;98.80;;;;;;5037550;28;20535;-76
2022/09/29 00:44:00;;;;;;;6.17;3.97;;;8.00;98.90;;;;;;5054094;28;20052;-77
2022/09/29 00:46:29;;;;;;;6.90;4.00;;;8.00;98.90;;;;;;5055396;28;20465;-76
2022/09/29 00:49:06;;;;;;;5.73;3.43;;;7.90;99.00;;;;;;5053963;28;20037;-76
2022/09/29 00:51:35;;;;;;;8.13;4.87;;;7.90;99.30;;;;;;5053957;28;20032;-77
2022/09/29 00:54:02;;;;;;;7.27;4.80;;;7.90;99.10;;;;;;5053762;28;20029;-76
2022/09/29 00:56:29;;;;;;;6.60;3.67;;;7.90;99.20;;;;;;5036936;28;20052;-76
2022/09/29 00:59:03;;;;;;;5.80;3.47;;;7.90;99.20;;;;;;5037265;28;20056;-76
2022/09/29 01:01:30;;;;;;;7.18;4.22;;;7.90;99.20;;;;;;5053750;28;20035;-76
2022/09/29 01:04:02;;;;;;;5.90;3.57;;;7.90;99.30;;;;;;5053648;28;20075;-76
2022/09/29 01:06:43;;;;;;;6.07;3.60;;;7.90;99.30;;;;;;5053576;28;20025;-76
2022/09/29 01:09:19;;;;;;;9.13;4.37;;;7.80;99.30;;;;;;5053536;28;20025;-76
2022/09/29 01:11:46;;;;;;;5.30;3.33;;;7.80;99.30;;;;;;5053444;28;20041;-76
2022/09/29 01:14:13;;;;;;;6.33;4.03;;;7.70;99.30;;;;;;5053446;28;20025;-76
2022/09/29 01:16:40;;;;;;;9.03;4.43;;;7.80;99.40;;;;;;5037127;28;20112;-77
2022/09/29 01:19:27;;;;;;;6.07;4.50;;;7.80;99.50;;;;;;5053387;28;20059;-77
2022/09/29 01:22:20;;;;;;;9.03;4.67;;;7.70;99.60;;;;;;5053441;28;20480;-77
2022/09/29 01:25:23;;;;;;;10.33;4.37;;;7.70;99.80;;;;;;5053363;28;20031;-82
2022/09/29 01:28:06;;;;;;;6.30;3.93;;;7.70;99.90;;;;;;5053072;28;20056;-83
2022/09/29 01:30:58;;;;;;;7.03;4.43;;;7.70;99.90;;;;;;5053221;28;20401;-83
2022/09/29 01:33:38;;;;;;;6.63;4.57;;;7.80;99.90;;;;;;5053410;28;20044;-83
2022/09/29 01:36:13;;;;;;;6.37;4.40;;;7.70;99.90;;;;;;5054414;28;20036;-82
2022/09/29 01:39:04;;;;;;;6.53;4.23;;;7.70;99.90;;;;;;5052951;28;20029;-82
2022/09/29 01:41:47;;;;;;;7.20;4.67;;;7.70;99.90;;;;;;5052379;28;20079;-83
2022/09/29 01:44:39;;;;;;;6.25;3.92;;;7.80;99.90;;;;;;5052806;28;20513;-83
2022/09/29 01:47:12;;;;;;;7.07;4.33;;;7.70;99.90;;;;;;5052968;28;20107;-83
2022/09/29 01:49:43;;;;;;;7.07;4.68;;;7.70;99.90;;;;;;5052752;28;20112;-83
2022/09/29 01:52:19;;;;;;;7.20;4.47;;;7.70;99.90;;;;;;5052662;28;20485;-83
2022/09/29 01:55:00;;;;;;;6.03;3.73;;;7.70;99.90;;;;;;5053681;28;20040;-83
2022/09/29 01:57:38;;;;;;;7.60;4.17;;;7.70;99.90;;;;;;5052503;28;20040;-83
2022/09/29 02:00:11;;;;;;;6.23;3.93;;;7.60;99.90;;;;;;5052849;28;20102;-82
2022/09/29 02:02:46;;;;;;;6.88;3.90;;;7.60;99.90;;;;;;5052575;28;20021;-82
2022/09/29 02:05:26;;;;;;;7.53;4.23;;;7.60;99.90;;;;;;5052376;28;20481;-83
2022/09/29 02:07:53;;;;;;;6.23;4.07;;;7.60;99.90;;;;;;5035893;28;20013;-83
2022/09/29 02:10:28;;;;;;;8.60;4.77;;;7.60;99.90;;;;;;5052423;28;20024;-83
2022/09/29 02:12:56;;;;;;;7.10;4.73;;;7.60;99.90;;;;;;5053580;28;20029;-83
2022/09/29 02:15:27;;;;;;;8.40;5.07;;;7.60;99.90;;;;;;5052265;28;20024;-83
2022/09/29 02:17:56;;;;;;;7.67;5.00;;;7.50;99.90;;;;;;5052107;28;20027;-83
2022/09/29 02:20:23;;;;;;;7.87;5.20;;;7.50;99.90;;;;;;5052182;28;20441;-83
2022/09/29 02:22:49;;;;;;;7.80;4.70;;;7.50;99.90;;;;;;5019276;28;20168;-83
2022/09/29 02:25:18;;;;;;;9.13;4.50;;;7.50;99.90;;;;;;5035666;28;20111;-83
2022/09/29 02:27:44;;;;;;;7.20;4.47;;;7.50;99.90;;;;;;5052233;28;20036;-76
2022/09/29 02:30:11;;;;;;;6.80;4.07;;;7.60;99.90;;;;;;5035726;28;20029;-76
2022/09/29 02:32:37;;;;;;;6.73;3.70;;;7.50;99.90;;;;;;5035490;28;20055;-75
2022/09/29 02:35:06;;;;;;;6.07;3.33;;;7.50;99.90;;;;;;5052139;28;20056;-77
2022/09/29 02:37:53;;;;;;;5.50;3.50;;;7.50;99.90;;;;;;5053325;28;20032;-77
2022/09/29 02:40:47;;;;;;;5.13;3.50;;;7.40;99.90;;;;;;5053287;28;20020;-77
2022/09/29 02:43:21;;;;;;;4.60;2.85;;;7.40;99.90;;;;;;5053116;28;20543;-77
2022/09/29 02:46:05;;;;;;;;;;;7.40;99.90;;;;;;5052234;28;20040;-77
2022/09/29 02:48:59;;;;;;;4.73;2.97;;;7.40;99.90;;;;;;5051978;28;19904;-77
2022/09/29 02:51:34;;;;;;;5.30;3.47;;;7.30;99.90;;;;;;5051808;28;20848;-77
2022/09/29 02:54:21;;;;;;;6.13;3.63;;;7.20;99.90;;;;;;5051033;28;20396;-77
2022/09/29 02:57:11;;;;;;;5.40;3.33;;;7.20;99.90;;;;;;5051638;28;20049;-77
2022/09/29 03:00:08;;;;;;;4.87;2.80;;;7.20;99.90;;;;;;5051891;28;20496;-77
2022/09/29 03:02:35;;;;;;;4.93;2.97;;;7.20;99.90;;;;;;5051694;28;20009;-77
2022/09/29 03:05:02;;;;;;;6.07;3.87;;;7.10;99.90;;;;;;5052941;28;20029;-77
2022/09/29 03:07:28;;;;;;;4.93;3.27;;;7.10;99.90;;;;;;5035127;28;20553;-77
2022/09/29 03:09:54;;;;;;;7.33;4.13;;;7.10;99.90;;;;;;5034975;28;20029;-77
2022/09/29 03:12:19;;;;;;;5.20;3.67;;;7.00;99.90;;;;;;5018766;28;20037;-77
2022/09/29 03:14:45;;;;;;;5.83;3.60;;;7.00;99.90;;;;;;5035321;28;20033;-77
2022/09/29 03:17:11;;;;;;;6.20;3.80;;;7.00;99.90;;;;;;5035044;28;20029;-77
2022/09/29 03:19:36;;;;;;;6.50;3.67;;;7.10;99.90;;;;;;5034880;28;20074;-77
2022/09/29 03:22:02;;;;;;;5.63;3.50;;;7.00;99.90;;;;;;5034950;28;20423;-77
2022/09/29 03:24:28;;;;;;;6.13;3.30;;;7.00;99.90;;;;;;5034262;28;20017;-77
2022/09/29 03:26:54;;;;;;;6.67;3.37;;;7.00;99.90;;;;;;5032417;28;20504;-77
2022/09/29 03:29:19;;;;;;;5.43;3.53;;;6.90;99.90;;;;;;5033836;28;20052;-77
2022/09/29 03:31:45;;;;;;;4.70;3.33;;;6.90;99.90;;;;;;5034606;28;20473;-77
2022/09/29 03:34:11;;;;;;;5.67;3.80;;;6.90;99.90;;;;;;5034770;28;20041;-76
2022/09/29 03:36:36;;;;;;;6.63;3.80;;;6.90;99.90;;;;;;5034708;28;20028;-77
2022/09/29 03:39:02;;;;;;;7.37;4.13;;;6.90;99.90;;;;;;5034289;28;20119;-83
2022/09/29 03:41:28;;;;;;;4.87;3.00;;;6.80;99.90;;;;;;5052201;28;20381;-83
2022/09/29 03:43:53;;;;;;;5.17;3.57;;;6.80;99.90;;;;;;5035199;28;20040;-84
2022/09/29 03:46:19;;;;;;;7.17;4.10;;;6.70;99.90;;;;;;5034819;28;20363;-83
2022/09/29 03:48:45;;;;;;;6.83;4.00;;;6.80;99.90;;;;;;5052497;28;20025;-77
2022/09/29 03:51:10;;;;;;;5.30;3.60;;;6.80;99.90;;;;;;5034865;28;20101;-77
2022/09/29 03:53:36;;;;;;;5.70;3.97;;;6.70;99.90;;;;;;5034772;28;20539;-77
2022/09/29 03:56:03;;;;;;;6.20;3.83;;;6.70;99.90;;;;;;5019745;28;20080;-77
2022/09/29 03:58:29;;;;;;;5.13;3.40;;;6.80;99.90;;;;;;5034545;28;20025;-76
2022/09/29 04:00:54;;;;;;;6.27;3.83;;;6.70;99.90;;;;;;5052519;28;20055;-77
2022/09/29 04:03:20;;;;;;;6.10;4.07;;;6.60;99.90;;;;;;5034534;28;20029;-77
2022/09/29 04:05:46;;;;;;;6.27;4.23;;;6.60;99.90;;;;;;5036426;28;20057;-77
2022/09/29 04:08:13;;;;;;;4.90;3.50;;;6.60;99.90;;;;;;5054820;28;20047;-77
2022/09/29 04:10:39;;;;;;;7.30;4.00;;;6.60;99.90;;;;;;5038123;28;20492;-80
2022/09/29 04:13:06;;;;;;;6.70;4.30;;;6.50;99.90;;;;;;5038062;28;20029;-80
2022/09/29 04:15:32;;;;;;;5.67;4.07;;;6.60;99.90;;;;;;5038104;28;20551;-80
2022/09/29 04:17:58;;;;;;;7.70;4.27;;;6.50;99.90;;;;;;5037772;28;20029;-80
2022/09/29 04:20:24;;;;;;;6.73;4.53;;;6.50;99.90;;;;;;5037991;28;20037;-80
2022/09/29 04:22:50;;;;;;;7.13;5.00;;;6.50;99.90;;;;;;5056255;28;20048;-81
2022/09/29 04:25:16;;;;;;;8.23;5.17;;;6.50;99.90;;;;;;5037855;28;20021;-80
2022/09/29 04:27:41;;;;;;;11.50;5.27;;;6.50;99.90;;;;;;5037742;28;20090;-80
2022/09/29 04:30:08;;;;;;;12.33;5.93;;;6.60;99.90;;;;;;5037820;28;20116;-80
2022/09/29 04:32:33;;;;;;;12.00;5.53;;;6.50;99.90;;;;;;5054220;28;20025;-80
2022/09/29 04:34:59;;;;;;;9.60;5.40;;;6.50;99.90;;;;;;5054213;28;20017;-80
2022/09/29 04:37:25;;;;;;;10.30;6.43;;;6.50;99.90;;;;;;5053995;28;20064;-80
2022/09/29 04:39:52;;;;;;;9.77;5.37;;;6.50;99.90;;;;;;5037492;28;20025;-83
2022/09/29 04:42:18;;;;;;;11.43;6.23;;;6.50;99.90;;;;;;5037703;28;20421;-84
2022/09/29 04:44:44;;;;;;;11.13;6.03;;;6.50;99.90;;;;;;5054002;28;20443;-84
2022/09/29 04:47:09;;;;;;;12.50;5.77;;;6.50;99.90;;;;;;5037413;28;20033;-84
2022/09/29 04:49:35;;;;;;;14.63;6.40;;;6.50;99.90;;;;;;5037439;28;20033;-81
2022/09/29 04:52:00;;;;;;;12.47;6.73;;;6.50;99.90;;;;;;5037201;28;20041;-80
2022/09/29 04:54:30;;;;;;;13.67;7.10;;;6.50;99.90;;;;;;5037193;28;20036;-80
2022/09/29 04:56:56;;;;;;;17.50;6.97;;;6.50;99.90;;;;;;5037090;28;20049;-80
2022/09/29 04:59:21;;;;;;;13.50;7.60;;;6.50;99.90;;;;;;5037362;28;20036;-80
2022/09/29 05:01:48;;;;;;;19.73;7.30;;;6.50;99.90;;;;;;5037224;28;20036;-80
2022/09/29 05:04:14;;;;;;;15.50;7.67;;;6.50;99.90;;;;;;5037055;28;20021;-80
2022/09/29 05:06:40;;;;;;;18.50;7.40;;;6.60;99.90;;;;;;5054856;28;20370;-80
2022/09/29 05:09:06;;;;;;;31.87;7.30;;;6.60;99.90;;;;;;5053407;28;20029;-80
2022/09/29 05:11:31;;;;;;;18.77;7.07;;;6.80;99.90;;;;;;5036953;28;20527;-80
2022/09/29 05:13:57;;;;;;;28.60;7.50;;;6.60;99.90;;;;;;5037019;28;20064;-80
2022/09/29 05:16:24;;;;;;;25.13;7.57;;;6.70;99.90;;;;;;5035968;28;20044;-80
2022/09/29 05:18:49;;;;;;;26.13;7.33;;;6.70;99.90;;;;;;5053277;28;20025;-83
2022/09/29 05:21:15;;;;;;;34.83;6.70;;;6.70;99.90;;;;;;5053486;28;20036;-84
2022/09/29 05:23:41;;;;;;;27.33;7.33;;;6.70;99.90;;;;;;5036905;28;20033;-83
2022/09/29 05:26:09;;;;;;;20.87;7.23;;;6.70;99.90;;;;;;5036786;28;20035;-84
2022/09/29 05:28:35;;;;;;;23.93;7.70;;;6.70;99.90;;;;;;5052139;28;20536;-84
2022/09/29 05:31:07;;;;;;;38.53;6.77;;;6.80;99.90;;;;;;5036419;28;20523;-84
2022/09/29 05:33:34;;;;;;;21.40;6.70;;;6.80;99.90;;;;;;5035810;28;20079;-84
2022/09/29 05:36:00;;;;;;;15.07;6.17;;;6.80;99.90;;;;;;5051110;28;20021;-84
2022/09/29 05:38:25;;;;;;;22.03;7.03;;;6.80;99.90;;;;;;5052970;28;20063;-84
2022/09/29 05:40:52;;;;;;;18.57;6.60;;;6.80;99.90;;;;;;5032779;28;20030;-80
2022/09/29 05:43:19;;;;;;;37.27;6.20;;;6.80;99.90;;;;;;5014592;28;20040;-81
2022/09/29 05:45:45;;;;;;;31.20;6.77;;;6.80;99.90;;;;;;5015341;28;20021;-81
2022/09/29 05:48:10;;;;;;;12.60;5.77;;;6.80;99.90;;;;;;5016909;28;20087;-81
2022/09/29 05:50:40;;;;;;;54.57;8.30;;;6.80;99.90;;;;;;5016435;28;20033;-81
2022/09/29 05:53:07;;;;;;;29.83;6.47;;;6.80;99.90;;;;;;5003755;28;20029;-81
2022/09/29 05:55:34;;;;;;;21.20;5.67;;;6.80;99.90;;;;;;5019560;28;20033;-81
2022/09/29 05:58:00;;;;;;;17.60;6.03;;;6.80;99.90;;;;;;5035072;28;20032;-81
2022/09/29 06:00:25;;;;;;;33.83;5.97;;;6.80;99.90;;;;;;5018769;28;20036;-81
2022/09/29 06:02:51;;;;;;;24.50;6.70;;;6.80;99.90;;;;;;5017771;28;20040;-81
2022/09/29 06:05:17;;;;;;;18.57;5.47;;;6.90;99.90;;;;;;5018355;28;20025;-81
2022/09/29 06:07:42;;;;;;;24.93;6.27;;;6.90;99.90;;;;;;5019247;28;20083;-81
2022/09/29 06:10:08;;;;;;;27.50;6.20;;;6.90;99.90;;;;;;5002763;28;20056;-81
2022/09/29 06:12:35;;;;;;;24.93;6.30;;;6.90;99.90;;;;;;5035862;28;20128;-82
2022/09/29 06:15:04;;;;;;;18.87;6.00;;;7.00;99.90;;;;;;5035480;28;20029;-81
2022/09/29 06:17:30;;;;;;;32.47;6.07;;;7.00;99.90;;;;;;5053243;28;20036;-81
2022/09/29 06:19:56;;;;;;;27.80;5.87;;;7.00;99.90;;;;;;5019054;28;20033;-81
2022/09/29 06:22:21;;;;;;;22.57;6.03;;;7.00;99.90;;;;;;5002629;28;20044;-81
2022/09/29 06:24:47;;;;;;;22.00;7.17;;;7.10;99.90;;;;;;5002629;28;20533;-81
2022/09/29 06:27:13;;;;;;;32.97;6.53;;;7.10;99.90;;;;;;5018868;28;20033;-81
2022/09/29 06:29:39;;;;;;;35.87;6.43;;;7.10;99.90;;;;;;5018445;28;20083;-81
2022/09/29 06:32:04;;;;;;;36.47;6.90;;;7.10;99.90;;;;;;5018998;28;20427;-80
2022/09/29 06:34:30;;;;;;;36.57;6.90;;;7.10;99.90;;;;;;5018926;28;20036;-80
2022/09/29 06:39:40;;;;;;;25.50;7.13;;;7.30;99.90;;;;;;5038567;28;20518;-80
2022/09/29 06:42:07;;;;;;;19.07;7.33;;;7.20;99.90;;;;;;5002602;28;20029;-81
2022/09/29 06:44:32;;;;;;;21.57;7.90;;;7.20;99.90;;;;;;5035271;28;20029;-81
2022/09/29 06:46:58;;;;;;;21.97;8.27;;;7.20;99.90;;;;;;5035318;28;20461;-81
2022/09/29 06:49:24;;;;;;;43.60;8.30;;;7.30;99.90;;;;;;5002531;28;20021;-81
2022/09/29 06:51:50;;;;;;;63.03;9.30;;;7.30;99.90;;;;;;5035028;28;20075;-81
2022/09/29 06:54:19;;;;;;;38.20;8.33;;;7.40;99.90;;;;;;5018800;28;20025;-81
2022/09/29 06:56:52;;;;;;;39.37;8.63;;;7.50;99.90;;;;;;5034449;28;20572;-81
2022/09/29 06:59:18;;;;;;;30.70;8.38;;;7.50;99.90;;;;;;5017106;28;20469;-79
2022/09/29 07:01:48;;;;;;;29.83;9.07;;;7.60;99.90;;;;;;5033708;28;20104;-80
2022/09/29 07:04:13;;;;;;;41.67;8.33;;;7.60;99.90;;;;;;5033412;28;20056;-80
2022/09/29 07:06:39;;;;;;;14.23;8.63;;;7.70;99.90;;;;;;5033942;28;20056;-80
2022/09/29 07:09:05;;;;;;;22.33;8.97;;;7.80;99.90;;;;;;5017464;28;20025;-80
2022/09/29 07:11:30;;;;;;;20.90;8.73;;;7.80;99.90;;;;;;5017394;28;20465;-80
2022/09/29 07:13:56;;;;;;;22.00;8.10;;;8.00;99.90;;;;;;5001078;28;20029;-81
2022/09/29 07:16:22;;;;;;;37.13;8.63;;;7.90;99.90;;;;;;5006808;28;20120;-80
2022/09/29 07:18:48;;;;;;;16.20;8.23;;;8.00;99.90;;;;;;5033332;28;20447;-79
2022/09/29 07:21:16;;;;;;;15.57;8.83;;;8.10;99.90;;;;;;5017238;28;20024;-80
2022/09/29 07:23:43;;;;;;;24.77;9.13;;;8.10;99.90;;;;;;5017505;28;20036;-81
2022/09/29 07:26:09;;;;;;;31.67;8.57;;;8.20;99.90;;;;;;5017141;28;20111;-80
2022/09/29 07:28:35;;;;;;;17.90;8.90;;;8.20;99.90;;;;;;5033996;28;20029;-80
2022/09/29 07:31:09;;;;;;;14.90;9.30;;;8.30;99.90;;;;;;5033914;28;20034;-80
2022/09/29 07:33:35;;;;;;;13.68;9.55;;;8.30;99.90;;;;;;5033836;28;20036;-80
2022/09/29 07:36:01;;;;;;;23.70;9.73;;;8.40;99.90;;;;;;5001044;28;20033;-80
2022/09/29 07:38:27;;;;;;;18.37;9.37;;;8.40;99.90;;;;;;5033801;28;20056;-80
2022/09/29 07:40:53;;;;;;;13.93;10.57;;;8.50;99.90;;;;;;5019393;28;20376;-80
2022/09/29 07:43:19;;;;;;;15.80;10.17;;;8.70;99.90;;;;;;5003277;28;20021;-80
2022/09/29 07:45:49;;;;;;;14.80;9.43;;;8.70;99.90;;;;;;5020774;28;20116;-80
2022/09/29 07:48:16;;;;;;;16.63;10.13;;;8.80;99.90;;;;;;5020982;28;20032;-80
2022/09/29 07:50:42;;;;;;;17.80;10.43;;;8.90;99.90;;;;;;5037225;28;20025;-80
2022/09/29 07:53:09;;;;;;;15.83;10.73;;;8.90;99.90;;;;;;5020759;28;20117;-80
2022/09/29 07:55:35;;;;;;;16.37;12.17;;;9.00;99.90;;;;;;4968246;28;1153304;-80
2022/09/29 07:58:01;;;;;;;17.37;12.10;;;9.00;99.90;;;;;;5015235;28;20033;-80
2022/09/29 08:00:29;;;;;;;15.40;11.70;;;9.10;99.90;;;;;;5018300;28;20029;-80
2022/09/29 08:03:01;;;;;;;15.80;11.63;;;9.20;99.90;;;;;;5018750;28;20485;-80
2022/09/29 08:05:28;;;;;;;18.83;12.23;;;9.20;99.90;;;;;;5018517;28;20029;-80
2022/09/29 08:07:54;;;;;;;20.73;12.90;;;9.30;99.90;;;;;;5018374;28;20038;-82
2022/09/29 08:10:23;;;;;;;15.80;12.00;;;9.40;99.90;;;;;;5018705;28;20029;-82
2022/09/29 08:12:49;;;;;;;19.03;12.77;;;9.50;99.90;;;;;;5018537;28;20028;-82
2022/09/29 08:15:14;;;;;;;18.33;12.97;;;9.60;99.90;;;;;;5018382;28;20033;-82
2022/09/29 08:17:40;;;;;;;17.80;13.10;;;9.60;99.90;;;;;;5018331;28;20034;-82
2022/09/29 08:20:07;;;;;;;17.03;12.57;;;9.70;99.90;;;;;;5018422;28;20432;-83
2022/09/29 08:22:32;;;;;;;17.60;13.37;;;9.80;99.90;;;;;;5028021;28;20432;-82
2022/09/29 08:24:58;;;;;;;18.20;12.93;;;9.80;99.90;;;;;;5037785;28;20053;-84
2022/09/29 08:27:24;;;;;;;19.17;14.63;;;9.90;99.90;;;;;;5021060;28;20033;-82
2022/09/29 08:29:49;;;;;;;19.77;14.27;;;10.00;99.90;;;;;;5027378;28;20033;-82
2022/09/29 08:32:16;;;;;;;23.10;14.45;;;10.10;99.90;;;;;;5021321;28;20456;-82
2022/09/29 08:34:41;;;;;;;19.80;14.57;;;10.20;99.90;;;;;;5000634;28;20064;-82
2022/09/29 08:37:08;;;;;;;19.98;15.27;;;10.30;99.90;;;;;;5017880;28;20033;-82
2022/09/29 08:39:34;;;;;;;24.25;17.83;;;10.40;99.90;;;;;;5034595;28;20026;-82
2022/09/29 08:42:33;;;;;;;22.00;16.75;;;10.50;99.90;;;;;;5034211;28;20021;-83
2022/09/29 08:45:04;;;;;;;21.83;16.23;;;10.70;99.90;;;;;;5035358;28;20030;-83
2022/09/29 08:47:44;;;;;;;19.00;15.73;;;10.80;99.90;;;;;;5017590;28;20040;-82
2022/09/29 08:50:13;;;;;;;22.38;16.45;;;11.00;99.90;;;;;;5017340;28;20388;-82
2022/09/29 08:52:42;;;;;;;21.23;16.15;;;11.10;99.90;;;;;;5027274;28;20021;-82
2022/09/29 08:55:17;;;;;;;22.48;15.90;;;11.30;99.90;;;;;;5023327;28;20037;-82
2022/09/29 08:57:45;;;;;;;21.15;15.68;;;11.40;99.90;;;;;;5033412;28;20037;-82
2022/09/29 09:00:14;;;;;;;22.13;16.33;;;11.60;99.90;;;;;;5035193;28;20021;-82
2022/09/29 09:03:20;;;;;;;21.63;16.63;;;11.70;99.90;;;;;;5037665;28;20040;-81
2022/09/29 09:06:01;;;;;;;23.13;17.23;;;11.80;99.90;;;;;;5037718;28;20449;-81
2022/09/29 09:08:26;;;;;;;21.20;16.98;;;11.90;99.90;;;;;;5053754;28;20112;-82
2022/09/29 09:11:29;;;;;;;22.42;17.17;;;12.00;99.90;;;;;;5053686;28;20073;-82
2022/09/29 09:14:21;;;;;;;18.77;15.52;;;12.10;99.90;;;;;;5053518;28;20469;-82
2022/09/29 09:16:52;;;;;;;19.13;16.20;;;12.30;99.80;;;;;;5037315;28;20060;-82
2022/09/29 09:19:27;;;;;;;21.95;16.77;;;12.40;99.60;;;;;;5053686;28;20098;-82
2022/09/29 09:22:12;;;;;;;19.35;15.27;;;12.40;99.20;;;;;;5054772;28;20032;-82
2022/09/29 09:24:50;;;;;;;20.33;16.13;;;12.40;98.80;;;;;;5053328;28;20036;-82
2022/09/29 09:27:21;;;;;;;19.42;16.15;;;12.50;98.70;;;;;;5037422;28;20033;-83
2022/09/29 09:29:52;;;;;;;22.05;16.63;;;12.50;98.10;;;;;;5036597;28;20111;-82
2022/09/29 09:32:27;;;;;;;18.83;15.68;;;12.50;98.00;;;;;;5036283;28;20025;-84
2022/09/29 09:34:56;;;;;;;20.90;16.80;;;12.50;97.60;;;;;;5054519;28;20487;-82
2022/09/29 09:37:32;;;;;;;20.20;17.23;;;12.50;97.50;;;;;;5032933;28;20040;-82
2022/09/29 09:40:13;;;;;;;18.73;15.30;;;12.50;97.30;;;;;;5016676;28;20030;-83
2022/09/29 09:42:44;;;;;;;18.70;14.60;;;12.50;97.20;;;;;;5016490;28;20025;-83
2022/09/29 09:45:33;;;;;;;20.65;14.88;;;12.60;97.20;;;;;;5016767;28;20496;-82
2022/09/29 09:48:23;;;;;;;18.90;13.80;;;12.80;97.20;;;;;;5016557;28;20032;-82
2022/09/29 09:50:49;;;;;;;19.52;13.23;;;13.00;96.90;;;;;;5016335;28;20032;-82
2022/09/29 09:53:19;;;;;;;15.18;12.18;;;13.30;96.70;;;;;;5000349;28;20033;-82
2022/09/29 09:55:59;;;;;;;13.52;10.75;;;13.70;96.60;;;;;;5052339;28;20052;-82
2022/09/29 09:58:45;;;;;;;13.57;9.13;;;14.10;96.70;;;;;;5036265;28;20024;-82
2022/09/29 10:01:11;;;;;;;11.02;7.68;;;14.60;97.00;;;;;;5052451;28;20492;-83
2022/09/29 10:03:37;;;;;;;8.80;5.97;;;15.30;97.90;;;;;;5018625;28;20048;-82
2022/09/29 10:06:06;;;;;;;10.63;5.82;;;16.00;98.00;;;;;;5036337;28;20025;-82
2022/09/29 10:08:37;;;;;;;7.38;5.18;;;16.90;97.70;;;;;;5019631;28;20024;-82
2022/09/29 10:11:11;;;;;;;11.32;5.28;;;17.70;97.30;;;;;;5036162;28;20078;-82
2022/09/29 10:13:36;;;;;;;6.47;4.15;;;18.60;96.60;;;;;;5020563;28;20028;-83
2022/09/29 10:16:15;;;;;;;5.28;3.42;;;19.40;95.10;;;;;;5035755;28;20025;-82
2022/09/29 10:18:47;;;;;;;5.22;3.25;;;20.20;92.40;;;;;;5035661;28;20115;-81
2022/09/29 10:21:34;;;;;;;6.47;3.13;;;21.00;91.50;;;;;;5035192;28;20059;-83
2022/09/29 10:24:01;;;;;;;5.20;3.20;;;21.70;86.70;;;;;;5051185;28;20029;-81
2022/09/29 10:26:38;;;;;;;4.57;2.88;;;22.30;85.70;;;;;;5018926;28;20036;-81
2022/09/29 10:29:22;;;;;;;5.38;3.08;;;22.90;81.20;;;;;;5034938;28;20033;-82
2022/09/29 10:32:04;;;;;;;5.85;2.95;;;23.70;76.50;;;;;;5042576;28;20032;-81
2022/09/29 10:34:31;;;;;;;3.78;2.35;;;24.30;73.30;;;;;;5035065;28;20021;-83
2022/09/29 10:37:02;;;;;;;4.25;2.60;;;24.90;72.20;;;;;;5019226;28;20064;-82
2022/09/29 10:39:49;;;;;;;3.65;2.03;;;25.40;68.30;;;;;;5035167;28;20061;-82
2022/09/29 10:42:30;;;;;;;2.50;1.50;;;25.90;63.70;;;;;;5024479;28;20110;-84
2022/09/29 10:45:24;;;;;;;4.15;1.85;;;26.30;62.60;;;;;;5043567;28;20021;-80
2022/09/29 10:47:56;;;;;;;4.88;2.15;;;26.80;59.60;;;;;;5034928;28;20024;-82
2022/09/29 10:50:25;;;;;;;2.60;1.73;;;27.00;58.10;;;;;;5034932;28;20075;-82
2022/09/29 10:53:00;;;;;;;2.80;2.05;;;27.30;57.10;;;;;;5035069;28;20029;-81
2022/09/29 10:55:34;;;;;;;2.70;1.88;;;27.50;55.30;;;;;;5034690;28;20013;-83
2022/09/29 10:58:18;;;;;;;3.63;1.77;;;27.70;54.30;;;;;;5032818;28;20047;-82
2022/09/29 11:00:46;;;;;;;3.47;1.77;;;27.90;53.00;;;;;;5049389;28;20032;-80
2022/09/29 11:03:25;;;;;;;2.50;1.27;;;28.20;52.20;;;;;;5052966;28;20025;-81
2022/09/29 11:05:53;;;;;;;5.50;1.83;;;28.40;50.20;;;;;;5035226;28;20535;-82
2022/09/29 11:08:24;;;;;;;3.25;1.52;;;28.50;50.50;;;;;;5035119;28;20528;-81
2022/09/29 11:11:01;;;;;;;2.30;1.40;;;28.70;50.00;;;;;;5019936;28;20190;-82
2022/09/29 11:13:27;;;;;;;3.15;1.63;;;28.90;49.00;;;;;;5052894;28;20033;-81
2022/09/29 11:16:20;;;;;;;2.65;1.45;;;29.10;49.20;;;;;;5055354;28;20446;-81
2022/09/29 11:18:50;;;;;;;2.85;1.63;;;29.40;47.60;;;;;;5038785;28;20029;-82
2022/09/29 11:21:18;;;;;;;3.95;1.90;;;29.60;47.70;;;;;;5039123;28;20013;-82
2022/09/29 11:24:22;;;;;;;2.22;1.10;;;29.70;47.20;;;;;;5039322;28;20075;-83
2022/09/29 11:27:12;;;;;;;3.20;1.15;;;30.00;46.00;;;;;;5038757;28;20483;-83
2022/09/29 11:30:02;;;;;;;2.60;1.50;;;30.30;46.60;;;;;;5038759;28;20049;-81
2022/09/29 11:33:26;;;;;;;3.05;1.33;;;30.50;45.40;;;;;;5038935;28;20025;-82
2022/09/29 11:36:10;;;;;;;2.97;1.00;;;30.70;44.40;;;;;;4967501;28;20031;-81
2022/09/29 11:38:58;;;;;;;3.03;1.30;;;30.70;44.20;;;;;;5056737;28;20381;-81
2022/09/29 11:41:45;;;;;;;3.17;1.13;;;30.10;43.30;;;;;;5038693;28;20021;-82
2022/09/29 11:44:36;;;;;;;3.40;1.30;;;29.60;42.80;;;;;;5038605;28;20021;-82
2022/09/29 11:47:20;;;;;;;4.70;1.58;;;28.80;43.20;;;;;;5038476;28;20025;-82
2022/09/29 11:49:49;;;;;;;2.38;1.30;;;28.50;44.00;;;;;;5038454;28;20469;-83
2022/09/29 11:52:36;;;;;;;3.63;1.60;;;28.80;44.50;;;;;;5056757;28;20495;-83
2022/09/29 11:55:31;;;;;;;2.88;1.08;;;29.20;44.50;;;;;;5033965;28;20033;-81
2022/09/29 11:58:06;;;;;;;2.08;0.88;;;29.80;43.10;;;;;;5051947;28;20037;-83
2022/09/29 12:00:53;;;;;;;1.67;0.75;;;30.30;43.80;;;;;;5051891;28;20049;-83
2022/09/29 12:03:31;;;;;;;2.80;0.60;;;30.90;41.60;;;;;;5051779;28;20423;-84
2022/09/29 12:06:30;;;;;;;0.75;0.28;;;31.30;41.10;;;;;;5051778;28;20025;-84
2022/09/29 12:09:01;;;;;;;0.90;0.40;;;31.60;40.00;;;;;;5052097;28;20037;-84
2022/09/29 12:11:40;;;;;;;1.33;0.40;;;32.00;40.50;;;;;;5051903;28;20033;-84
2022/09/29 12:14:29;;;;;;;0.93;0.40;;;32.20;39.30;;;;;;5051555;28;20500;-84
2022/09/29 12:17:05;;;;;;;1.40;0.55;;;32.50;38.30;;;;;;5036186;28;20033;-86
2022/09/29 12:19:37;;;;;;;2.00;0.60;;;32.80;38.60;;;;;;5051554;28;20057;-84
2022/09/29 12:22:07;;;;;;;2.83;0.82;;;33.10;38.50;;;;;;5051462;28;20021;-83
2022/09/29 12:24:49;;;;;;;2.20;0.80;;;33.20;38.40;;;;;;5036043;28;20109;-83
2022/09/29 12:27:33;;;;;;;1.43;0.73;;;33.60;38.10;;;;;;5050960;28;20441;-85
2022/09/29 12:30:28;;;;;;;4.95;0.98;;;33.70;37.30;;;;;;5051725;28;20059;-85
2022/09/29 12:33:33;;;;;;;2.10;0.82;;;33.80;37.50;;;;;;5035796;28;20108;-83
2022/09/29 12:36:45;;;;;;;2.58;0.90;;;34.00;36.80;;;;;;5050467;28;20048;-84
2022/09/29 12:39:45;;;;;;;2.28;0.90;;;34.20;35.90;;;;;;5050931;28;20021;-84
2022/09/29 12:42:51;;;;;;;2.70;1.00;;;34.00;35.80;;;;;;5051139;28;20029;-84
2022/09/29 12:45:35;;;;;;;1.50;0.70;;;34.10;35.30;;;;;;5041283;28;20048;-82
2022/09/29 12:48:21;;;;;;;2.17;0.70;;;33.40;34.80;;;;;;5051237;28;20470;-84
2022/09/29 12:51:11;;;;;;;3.53;0.70;;;32.50;35.00;;;;;;5050837;28;20026;-83
2022/09/29 12:53:52;;;;;;;1.48;0.52;;;31.20;35.60;;;;;;5034099;28;20079;-82
2022/09/29 12:56:31;;;;;;;1.77;0.85;;;30.20;36.50;;;;;;5050586;28;20157;-81
2022/09/29 12:59:03;;;;;;;1.80;0.80;;;29.20;36.90;;;;;;5050454;28;20017;-81
2022/09/29 13:01:32;;;;;;;2.30;0.63;;;28.60;37.80;;;;;;5035060;28;20025;-80
2022/09/29 13:04:07;;;;;;;1.55;0.82;;;28.60;38.40;;;;;;5050481;28;20084;-82
2022/09/29 13:06:52;;;;;;;2.42;0.68;;;29.00;38.60;;;;;;5049203;28;20091;-78
2022/09/29 13:09:26;;;;;;;1.40;0.70;;;29.50;38.40;;;;;;5041964;28;20036;-79
2022/09/29 13:12:26;;;;;;;1.70;0.77;;;29.90;38.10;;;;;;5033179;28;20049;-79
2022/09/29 13:15:23;;;;;;;1.48;0.80;;;30.30;37.70;;;;;;5017797;28;20030;-81
2022/09/29 13:17:51;;;;;;;1.65;0.70;;;30.80;37.70;;;;;;5033166;28;20029;-82
2022/09/29 13:20:51;;;;;;;2.33;0.60;;;31.20;38.00;;;;;;5046553;28;20040;-84